Time;durP1;ratioP1;P1;durP2;ratioP2;P2;SDS_P1;SDS_P2;PMS_P1;PMS_P2;Temp;Humidity;BMP_temperature;BMP_pressure;BME280_temperature;BME280_humidity;BME280_pressure;Samples;Min_cycle;Max_cycle;Signal;HPM_P1;HPM_P2
2022/08/21 00:00:14;;;;;;;;;;;20.70;99.90;;;;;;4229853;28;19957;-63
2022/08/21 00:02:19;;;;;;;;;;;20.60;99.90;;;;;;4228457;28;19941;-62
2022/08/21 00:04:20;;;;;;;;;;;20.60;99.90;;;;;;4228987;28;20366;-63
2022/08/21 00:06:23;;;;;;;;;;;20.60;99.90;;;;;;4227298;28;19957;-63
2022/08/21 00:08:24;;;;;;;;;;;20.60;99.90;;;;;;4229167;28;20503;-62
2022/08/21 00:10:25;;;;;;;;;;;20.60;99.90;;;;;;4228633;28;19973;-63
2022/08/21 00:12:27;;;;;;;;;;;20.60;99.90;;;;;;4228843;28;19904;-62
2022/08/21 00:14:27;;;;;;;;;;;20.60;99.90;;;;;;4228508;28;19904;-63
2022/08/21 00:16:28;;;;;;;;;;;20.60;99.90;;;;;;4228549;28;19904;-65
2022/08/21 00:18:29;;;;;;;;;;;20.60;99.90;;;;;;4229048;28;19904;-63
2022/08/21 00:20:31;;;;;;;;;;;20.60;99.90;;;;;;4228123;28;19903;-62
2022/08/21 00:22:32;;;;;;;;;;;20.50;99.90;;;;;;4228992;28;20424;-62
2022/08/21 00:24:33;;;;;;;;;;;20.50;99.90;;;;;;4228013;28;20409;-64
2022/08/21 00:26:34;;;;;;;;;;;20.50;99.90;;;;;;4229218;28;19907;-62
2022/08/21 00:28:35;;;;;;;;;;;20.50;99.90;;;;;;4227790;28;20364;-62
2022/08/21 00:30:36;;;;;;;;;;;20.50;99.90;;;;;;4229411;28;20338;-62
2022/08/21 00:32:38;;;;;;;;;;;20.40;99.90;;;;;;4228069;28;20260;-62
2022/08/21 00:34:38;;;;;;;;;;;20.50;99.90;;;;;;4229103;28;19911;-62
2022/08/21 00:36:40;;;;;;;;;;;20.40;99.90;;;;;;4227669;28;19950;-62
2022/08/21 00:38:41;;;;;;;;;;;20.50;99.90;;;;;;4228768;28;19911;-63
2022/08/21 00:40:53;;;;;;;;;;;20.50;99.90;;;;;;4228055;28;19911;-64
2022/08/21 00:42:54;;;;;;;;;;;20.50;99.90;;;;;;4228291;28;20326;-64
2022/08/21 00:44:55;;;;;;;;;;;20.60;99.90;;;;;;4228098;28;20313;-63
2022/08/21 00:46:57;;;;;;;;;;;20.50;99.90;;;;;;4228249;28;19904;-63
2022/08/21 00:48:57;;;;;;;;;;;20.60;99.90;;;;;;4228462;28;20302;-63
2022/08/21 00:51:04;;;;;;;;;;;20.50;99.90;;;;;;4227846;28;19943;-63
2022/08/21 00:53:06;;;;;;;;;;;20.50;99.90;;;;;;4228621;28;19903;-63
2022/08/21 00:55:07;;;;;;;;;;;20.40;99.90;;;;;;4227808;28;19960;-63
2022/08/21 00:57:20;;;;;;;;;;;20.40;99.90;;;;;;4228320;28;19956;-63
2022/08/21 00:59:22;;;;;;;;;;;20.40;99.90;;;;;;4227713;28;20373;-62
2022/08/21 01:01:24;;;;;;;;;;;20.40;99.90;;;;;;4229602;28;19908;-63
2022/08/21 01:03:25;;;;;;;;;;;20.50;99.90;;;;;;4227664;28;19911;-63
2022/08/21 01:05:26;;;;;;;;;;;20.50;99.90;;;;;;4228861;28;19957;-63
2022/08/21 01:07:27;;;;;;;;;;;20.60;99.90;;;;;;4227407;28;19903;-64
2022/08/21 01:09:28;;;;;;;;;;;20.60;99.90;;;;;;4227459;28;19949;-62
2022/08/21 01:11:29;;;;;;;;;;;20.60;99.90;;;;;;4226283;28;20011;-63
2022/08/21 01:13:33;;;;;;;;;;;20.50;99.90;;;;;;4228797;28;20344;-62
2022/08/21 01:15:35;;;;;;;;;;;20.50;99.90;;;;;;4227590;28;20294;-63
2022/08/21 01:17:37;;;;;;;;;;;20.50;99.90;;;;;;4230993;28;19904;-63
2022/08/21 01:19:38;;;;;;;;;;;20.60;99.90;;;;;;4231261;28;19904;-64
2022/08/21 01:21:39;;;;;;;;;;;20.60;99.90;;;;;;4229697;28;19915;-63
2022/08/21 01:23:43;;;;;;;;;;;20.60;99.90;;;;;;4231292;28;19916;-62
2022/08/21 01:25:44;;;;;;;;;;;20.50;99.90;;;;;;4231267;28;20332;-61
2022/08/21 01:27:45;;;;;;;;;;;20.50;99.90;;;;;;4231764;28;19939;-63
2022/08/21 01:29:57;;;;;;;;;;;20.60;99.90;;;;;;4230787;28;19959;-63
2022/08/21 01:31:58;;;;;;;;;;;20.60;99.90;;;;;;4232214;28;19904;-62
2022/08/21 01:34:00;;;;;;;;;;;20.70;99.90;;;;;;4231005;28;19907;-62
2022/08/21 01:36:00;;;;;;;;;;;20.80;99.90;;;;;;4230298;28;19938;-63
2022/08/21 01:38:01;;;;;;;;;;;20.90;99.90;;;;;;4230723;27;20355;-63
2022/08/21 01:40:03;;;;;;;;;;;20.90;99.90;;;;;;4231800;28;19904;-62
2022/08/21 01:42:04;;;;;;;;;;;20.90;99.90;;;;;;4230563;28;20272;-63
2022/08/21 01:44:05;;;;;;;;;;;21.00;99.90;;;;;;4231686;27;20429;-62
2022/08/21 01:46:06;;;;;;;;;;;21.10;99.90;;;;;;4230721;28;19961;-64
2022/08/21 01:48:07;;;;;;;;;;;21.10;99.90;;;;;;4231767;28;19904;-63
2022/08/21 01:50:11;;;;;;;;;;;21.20;99.90;;;;;;4230432;28;20451;-62
2022/08/21 01:52:13;;;;;;;;;;;21.20;99.90;;;;;;4231412;28;19976;-63
2022/08/21 01:54:14;;;;;;;;;;;21.20;99.90;;;;;;4230797;28;20331;-63
2022/08/21 01:56:16;;;;;;;;;;;21.20;99.90;;;;;;4231138;28;19911;-62
2022/08/21 01:58:17;;;;;;;;;;;21.20;99.90;;;;;;4230647;27;19903;-63
2022/08/21 02:00:20;;;;;;;;;;;21.20;99.90;;;;;;4230789;28;19904;-64
2022/08/21 02:02:21;;;;;;;;;;;21.20;99.90;;;;;;4231569;28;19915;-64
2022/08/21 02:04:22;;;;;;;;;;;21.20;99.90;;;;;;4230308;28;19953;-62
2022/08/21 02:06:23;;;;;;;;;;;21.20;99.90;;;;;;4231317;28;19903;-63
2022/08/21 02:08:24;;;;;;;;;;;21.20;99.90;;;;;;4230247;28;20446;-62
2022/08/21 02:10:26;;;;;;;;;;;21.30;99.90;;;;;;4231352;27;20306;-63
2022/08/21 02:12:27;;;;;;;;;;;21.30;99.90;;;;;;4230183;28;19960;-63
2022/08/21 02:14:28;;;;;;;;;;;21.20;99.90;;;;;;4231333;28;20351;-63
2022/08/21 02:16:29;;;;;;;;;;;21.20;99.90;;;;;;4230164;28;19907;-62
2022/08/21 02:18:30;;;;;;;;;;;21.10;99.90;;;;;;4231280;28;19904;-63
2022/08/21 02:20:34;;;;;;;;;;;21.00;99.90;;;;;;4230164;28;19969;-63
2022/08/21 02:22:35;;;;;;;;;;;21.00;99.90;;;;;;4230699;28;19984;-63
2022/08/21 02:24:36;;;;;;;;;;;20.90;99.90;;;;;;4230110;28;20341;-63
2022/08/21 02:26:37;;;;;;;;;;;20.90;99.90;;;;;;4230813;28;19952;-63
2022/08/21 02:28:39;;;;;;;;;;;20.90;99.90;;;;;;4229096;28;19904;-63
2022/08/21 02:30:42;;;;;;;;;;;20.90;99.90;;;;;;4230301;28;20339;-62
2022/08/21 02:32:43;;;;;;;;;;;20.90;99.90;;;;;;4231050;28;19911;-63
2022/08/21 02:34:43;;;;;;;;;;;21.00;99.90;;;;;;4230175;28;19903;-63
2022/08/21 02:36:44;;;;;;;;;;;21.00;99.90;;;;;;4230756;28;19912;-63
2022/08/21 02:38:45;;;;;;;;;;;21.00;99.90;;;;;;4229762;28;19908;-64
2022/08/21 02:40:48;;;;;;;;;;;21.00;99.90;;;;;;4230877;28;19904;-63
2022/08/21 02:42:48;;;;;;;;;;;21.10;99.90;;;;;;4229632;28;19923;-64
2022/08/21 02:44:50;;;;;;;;;;;21.10;99.90;;;;;;4230937;28;19912;-64
2022/08/21 02:46:50;;;;;;;;;;;21.00;99.90;;;;;;4229629;28;20348;-63
2022/08/21 02:48:51;;;;;;;;;;;20.90;99.90;;;;;;4230813;28;19973;-64
2022/08/21 02:50:56;;;;;;;;;;;20.90;99.90;;;;;;4229474;28;19908;-64
2022/08/21 02:52:57;;;;;;;;;;;20.90;99.90;;;;;;4230765;28;19973;-63
2022/08/21 02:54:58;;;;;;;;;;;20.80;99.90;;;;;;4229372;28;19904;-62
2022/08/21 02:56:59;;;;;;;;;;;20.70;99.90;;;;;;4230270;28;19973;-63
2022/08/21 02:59:00;;;;;;;;;;;20.70;99.90;;;;;;4229583;28;20007;-63
2022/08/21 03:01:02;;;;;;;;;;;20.60;99.90;;;;;;4229897;28;19908;-63
2022/08/21 03:03:04;;;;;;;;;;;20.50;99.90;;;;;;4230326;28;19912;-63
2022/08/21 03:05:06;;;;;;;;;;;20.50;99.90;;;;;;4229622;28;19908;-63
2022/08/21 03:07:07;;;;;;;;;;;20.40;99.90;;;;;;4229968;28;19907;-64
2022/08/21 03:09:08;;;;;;;;;;;20.40;99.90;;;;;;4229365;28;19970;-62
2022/08/21 03:11:09;;;;;;;;;;;20.40;99.90;;;;;;4230494;28;19904;-62
2022/08/21 03:13:11;;;;;;;;;;;20.30;99.90;;;;;;4229353;28;19972;-63
2022/08/21 03:15:13;;;;;;;;;;;20.30;99.90;;;;;;4230411;28;19948;-63
2022/08/21 03:17:14;;;;;;;;;;;20.30;99.90;;;;;;4229299;28;19903;-62
2022/08/21 03:19:15;;;;;;;;;;;20.20;99.90;;;;;;4230527;28;19908;-63
2022/08/21 03:21:18;;;;;;;;;;;20.10;99.90;;;;;;4229134;28;20352;-62
2022/08/21 03:23:19;;;;;;;;;;;20.00;99.90;;;;;;4229964;28;20487;-65
2022/08/21 03:25:21;;;;;;;;;;;19.80;99.90;;;;;;4229035;28;19908;-62
2022/08/21 03:27:24;;;;;;;;;;;19.60;99.90;;;;;;4229949;28;20355;-64
2022/08/21 03:29:25;;;;;;;;;;;19.60;99.90;;;;;;4229153;28;19900;-65
2022/08/21 03:31:30;;;;;;;;;;;19.50;99.90;;;;;;4229511;28;19926;-62
2022/08/21 03:33:31;;;;;;;;;;;19.40;99.90;;;;;;4230036;27;20325;-62
2022/08/21 03:35:32;;;;;;;;;;;19.40;99.90;;;;;;4229778;27;19904;-62
2022/08/21 03:37:33;;;;;;;;;;;19.40;99.90;;;;;;4229308;28;19911;-61
2022/08/21 03:39:34;;;;;;;;;;;19.50;99.90;;;;;;4228506;28;19930;-61
2022/08/21 03:41:35;;;;;;;;;;;19.50;99.90;;;;;;4229799;28;19911;-61
2022/08/21 03:43:36;;;;;;;;;;;19.60;99.90;;;;;;4228703;28;20027;-61
2022/08/21 03:45:37;;;;;;;;;;;19.70;99.90;;;;;;4229938;28;19953;-61
2022/08/21 03:47:38;;;;;;;;;;;19.70;99.90;;;;;;4228630;28;19908;-61
2022/08/21 03:49:39;;;;;;;;;;;19.70;99.90;;;;;;4229758;28;20259;-61
2022/08/21 03:51:40;;;;;;;;;;;19.60;99.90;;;;;;4228437;28;19904;-61
2022/08/21 03:53:41;;;;;;;;;;;19.50;99.90;;;;;;4229824;28;20283;-62
2022/08/21 03:55:42;;;;;;;;;;;19.50;99.90;;;;;;4228603;28;19904;-62
2022/08/21 03:57:43;;;;;;;;;;;19.40;99.90;;;;;;4229585;28;19908;-62
2022/08/21 03:59:44;;;;;;;;;;;19.40;99.90;;;;;;4228626;28;20424;-62
2022/08/21 04:01:55;;;;;;;;;;;19.40;99.90;;;;;;4229300;28;20025;-63
2022/08/21 04:03:56;;;;;;;;;;;19.50;99.90;;;;;;4228767;28;19953;-62
2022/08/21 04:05:57;;;;;;;;;;;19.60;99.90;;;;;;4228966;28;20038;-62
2022/08/21 04:07:59;;;;;;;;;;;19.70;99.90;;;;;;4228896;28;19904;-63
2022/08/21 04:10:00;;;;;;;;;;;19.90;99.90;;;;;;4228567;28;19959;-63
2022/08/21 04:12:02;;;;;;;;;;;20.00;99.90;;;;;;4229049;28;19903;-62
2022/08/21 04:14:03;;;;;;;;;;;20.10;99.90;;;;;;4228398;28;19953;-63
2022/08/21 04:16:04;;;;;;;;;;;20.20;99.90;;;;;;4229336;28;19952;-62
2022/08/21 04:18:05;;;;;;;;;;;20.30;99.90;;;;;;4228216;28;20309;-62
2022/08/21 04:20:06;;;;;;;;;;;20.30;99.90;;;;;;4229397;28;19950;-63
2022/08/21 04:22:07;;;;;;;;;;;20.20;99.90;;;;;;4228209;28;20318;-62
2022/08/21 04:24:09;;;;;;;;;;;20.20;99.90;;;;;;4229026;28;19916;-62
2022/08/21 04:26:10;;;;;;;;;;;20.20;99.90;;;;;;4227999;28;19908;-63
2022/08/21 04:28:11;;;;;;;;;;;20.30;99.90;;;;;;4229449;28;19949;-62
2022/08/21 04:30:14;;;;;;;;;;;20.30;99.90;;;;;;4228400;27;19907;-62
2022/08/21 04:32:35;;;;;;;;;;;20.30;99.90;;;;;;4739233;22;19924;-63
2022/08/21 04:34:36;;;;;;;;;;;20.40;99.90;;;;;;4176027;28;20375;-62
2022/08/21 04:36:37;;;;;;;;;;;20.50;99.90;;;;;;4176257;28;19951;-62
2022/08/21 04:38:38;;;;;;;;;;;20.40;99.90;;;;;;4176377;28;19959;-61
2022/08/21 04:40:39;;;;;;;;;;;20.50;99.90;;;;;;4175892;28;19971;-61
2022/08/21 04:42:44;;;;;;;;;;;20.50;99.90;;;;;;4176741;28;19908;-62
2022/08/21 04:44:47;;;;;;;;;;;20.70;99.90;;;;;;4174901;28;20376;-62
2022/08/21 04:46:48;;;;;;;;;;;20.80;99.90;;;;;;4176245;28;19950;-62
2022/08/21 04:48:49;;;;;;;;;;;20.90;99.90;;;;;;4174858;28;19917;-62
2022/08/21 04:51:08;;;;;;;;;;;21.00;99.90;;;;;;4176810;28;19908;-62
2022/08/21 04:53:14;;;;;;;;;;;21.20;99.90;;;;;;4175751;28;19943;-62
2022/08/21 04:55:16;;;;;;;;;;;21.20;99.90;;;;;;4176226;28;19955;-62
2022/08/21 04:57:17;;;;;;;;;;;21.10;99.90;;;;;;4175630;28;19909;-62
2022/08/21 04:59:24;;;;;;;;;;;21.10;99.90;;;;;;4176166;28;20019;-62
2022/08/21 05:01:27;;;;;;;;;;;21.10;99.90;;;;;;4175529;28;19904;-63
2022/08/21 05:03:28;;;;;;;;;;;21.10;99.90;;;;;;4176674;28;19909;-63
2022/08/21 05:05:29;;;;;;;;;;;21.10;99.90;;;;;;4181196;28;19908;-63
2022/08/21 05:07:31;;;;;;;;;;;21.10;99.90;;;;;;4195289;28;19927;-62
2022/08/21 05:09:33;;;;;;;;;;;21.20;99.90;;;;;;4193725;28;19958;-62
2022/08/21 05:11:34;;;;;;;;;;;21.20;99.90;;;;;;4194888;28;20241;-62
2022/08/21 05:13:35;;;;;;;;;;;21.10;99.90;;;;;;4194299;28;19966;-62
2022/08/21 05:15:37;;;;;;;;;;;20.90;99.90;;;;;;4194145;28;20348;-62
2022/08/21 05:17:38;;;;;;;;;;;20.80;99.90;;;;;;4194417;28;20356;-63
2022/08/21 05:19:39;;;;;;;;;;;20.70;99.90;;;;;;4194163;28;19904;-62
2022/08/21 05:21:43;;;;;;;;;;;20.80;99.90;;;;;;4194453;28;20763;-62
2022/08/21 05:23:44;;;;;;;;;;;20.80;99.90;;;;;;4193666;28;19962;-62
2022/08/21 05:25:45;;;;;;;;;;;20.80;99.90;;;;;;4195074;28;19912;-61
2022/08/21 05:27:46;;;;;;;;;;;20.80;99.90;;;;;;4193825;28;19974;-62
2022/08/21 05:29:47;;;;;;;;;;;20.70;99.90;;;;;;4194911;28;19912;-62
2022/08/21 05:31:48;;;;;;;;;;;20.60;99.90;;;;;;4193491;28;20335;-62
2022/08/21 05:33:49;;;;;;;;;;;20.60;99.90;;;;;;4194485;28;19991;-63
2022/08/21 05:35:51;;;;;;;;;;;20.60;99.90;;;;;;4193854;28;20011;-62
2022/08/21 05:37:52;;;;;;;;;;;20.60;99.90;;;;;;4194594;28;19908;-63
2022/08/21 05:39:53;;;;;;;;;;;20.70;99.90;;;;;;4193789;28;20363;-62
2022/08/21 05:41:54;;;;;;;;;;;20.70;99.90;;;;;;4194870;28;19934;-62
2022/08/21 05:43:55;;;;;;;;;;;20.70;99.90;;;;;;4193881;28;19934;-62
2022/08/21 05:45:56;;;;;;;;;;;20.50;99.90;;;;;;4194330;28;19904;-62
2022/08/21 05:47:57;;;;;;;;;;;20.40;99.90;;;;;;4193770;28;19904;-62
2022/08/21 05:49:58;;;;;;;;;;;20.40;99.90;;;;;;4194298;28;19939;-63
2022/08/21 05:51:59;;;;;;;;;;;20.40;99.90;;;;;;4194606;28;19954;-63
2022/08/21 05:54:00;;;;;;;;;;;20.30;99.90;;;;;;4193704;28;19904;-62
2022/08/21 05:56:03;;;;;;;;;;;20.30;99.90;;;;;;4194923;28;20382;-62
2022/08/21 05:58:04;;;;;;;;;;;20.20;99.90;;;;;;4193633;28;19905;-62
2022/08/21 06:00:09;;;;;;;;;;;20.20;99.90;;;;;;4194939;28;19934;-62
2022/08/21 06:02:11;;;;;;;;;;;20.20;99.90;;;;;;4193751;28;19908;-62
2022/08/21 06:04:12;;;;;;;;;;;20.20;99.90;;;;;;4197653;28;19985;-62
2022/08/21 06:06:13;;;;;;;;;;;20.10;99.90;;;;;;4196659;28;19970;-63
2022/08/21 06:08:14;;;;;;;;;;;20.10;99.90;;;;;;4197737;28;19909;-63
2022/08/21 06:10:15;;;;;;;;;;;20.10;99.90;;;;;;4196688;28;19908;-63
2022/08/21 06:12:16;;;;;;;;;;;20.10;99.90;;;;;;4197532;28;20029;-63
2022/08/21 06:14:17;;;;;;;;;;;20.10;99.90;;;;;;4196833;28;19942;-62
2022/08/21 06:16:18;;;;;;;;;;;20.10;99.90;;;;;;4197375;28;20249;-62
2022/08/21 06:18:19;;;;;;;;;;;20.00;99.90;;;;;;4196774;28;19905;-62
2022/08/21 06:20:21;;;;;;;;;;;20.00;99.90;;;;;;4196916;28;20447;-63
2022/08/21 06:22:22;;;;;;;;;;;20.00;99.90;;;;;;4197217;28;19921;-62
2022/08/21 06:24:23;;;;;;;;;;;20.00;99.90;;;;;;4196607;28;19987;-62
2022/08/21 06:26:24;;;;;;;;;;;20.00;99.90;;;;;;4196872;28;20000;-62
2022/08/21 06:28:25;;;;;;;;;;;20.00;99.90;;;;;;4196504;28;20352;-62
2022/08/21 06:30:26;;;;;;;;;;;20.00;99.90;;;;;;4197171;28;19946;-62
2022/08/21 06:32:27;;;;;;;;;;;20.00;99.90;;;;;;4196042;28;19911;-62
2022/08/21 06:34:28;;;;;;;;;;;20.00;99.90;;;;;;4197555;28;19908;-62
2022/08/21 06:36:28;;;;;;;;;;;19.90;99.90;;;;;;4195901;28;20349;-64
2022/08/21 06:38:29;;;;;;;;;;;19.90;99.90;;;;;;4197274;28;19962;-63
2022/08/21 06:40:31;;;;;;;;;;;19.90;99.90;;;;;;4196134;28;19989;-64
2022/08/21 06:42:32;;;;;;;;;;;19.90;99.90;;;;;;4197226;28;19908;-62
2022/08/21 06:44:33;;;;;;;;;;;19.80;99.90;;;;;;4196202;28;20311;-63
2022/08/21 06:46:34;;;;;;;;;;;19.70;99.90;;;;;;4196922;28;19908;-63
2022/08/21 06:48:35;;;;;;;;;;;19.60;99.90;;;;;;4196127;28;19915;-64
2022/08/21 06:50:36;;;;;;;;;;;19.60;99.90;;;;;;4196324;28;20011;-64
2022/08/21 06:52:37;;;;;;;;;;;19.50;99.90;;;;;;4196743;28;19950;-63
2022/08/21 06:54:39;;;;;;;;;;;19.40;99.90;;;;;;4196042;28;19911;-63
2022/08/21 06:56:40;;;;;;;;;;;19.50;99.90;;;;;;4197022;28;19908;-62
2022/08/21 06:58:41;;;;;;;;;;;19.50;99.90;;;;;;4193989;28;19908;-63
2022/08/21 07:00:44;;;;;;;;;;;19.50;99.90;;;;;;4196713;28;19908;-62
2022/08/21 07:02:45;;;;;;;;;;;19.50;99.90;;;;;;4195679;28;19912;-64
2022/08/21 07:04:46;;;;;;;;;;;19.50;99.90;;;;;;4197013;28;19913;-64
2022/08/21 07:06:46;;;;;;;;;;;19.50;99.90;;;;;;4195739;28;19986;-63
2022/08/21 07:08:47;;;;;;;;;;;19.60;99.90;;;;;;4196737;28;19904;-63
2022/08/21 07:10:48;;;;;;;;;;;19.70;99.90;;;;;;4195416;28;19912;-64
2022/08/21 07:12:50;;;;;;;;;;;19.70;99.90;;;;;;4196613;28;20318;-63
2022/08/21 07:14:51;;;;;;;;;;;19.80;99.90;;;;;;4195117;28;20336;-64
2022/08/21 07:16:52;;;;;;;;;;;19.90;99.90;;;;;;4196176;28;19966;-63
2022/08/21 07:18:53;;;;;;;;;;;19.90;99.90;;;;;;4195577;28;20010;-63
2022/08/21 07:20:55;;;;;;;;;;;19.90;99.90;;;;;;4195688;28;19917;-63
2022/08/21 07:22:56;;;;;;;;;;;20.10;99.90;;;;;;4195885;28;19908;-63
2022/08/21 07:24:58;;;;;;;;;;;20.10;99.90;;;;;;4195253;28;19990;-62
2022/08/21 07:26:59;;;;;;;;;;;20.20;99.90;;;;;;4196172;28;19909;-64
2022/08/21 07:29:00;;;;;;;;;;;20.40;99.90;;;;;;4195167;28;19949;-63
2022/08/21 07:31:03;;;;;;;;;;;20.70;99.90;;;;;;4196358;28;19966;-64
2022/08/21 07:33:03;;;;;;;;;;;21.00;99.90;;;;;;4194927;28;19969;-64
2022/08/21 07:35:05;;;;;;;;;;;21.30;99.90;;;;;;4196405;28;19908;-62
2022/08/21 07:37:05;;;;;;;;;;;21.60;99.90;;;;;;4194874;28;19909;-62
2022/08/21 07:39:07;;;;;;;;;;;21.70;99.90;;;;;;4196217;28;19912;-63
2022/08/21 07:41:16;;;;;;;;;;;22.00;99.90;;;;;;4194899;28;19916;-63
2022/08/21 07:43:17;;;;;;;;;;;22.20;99.90;;;;;;4196029;28;19912;-63
2022/08/21 07:45:20;;;;;;;;;;;22.20;99.90;;;;;;4194949;28;19938;-63
2022/08/21 07:47:21;;;;;;;;;;;22.20;99.90;;;;;;4196024;28;19950;-62
2022/08/21 07:49:22;;;;;;;;;;;22.20;99.90;;;;;;4194737;28;19912;-62
2022/08/21 07:51:24;;;;;;;;;;;22.00;99.90;;;;;;4195765;28;20378;-64
2022/08/21 07:53:25;;;;;;;;;;;22.00;99.90;;;;;;4195405;28;19908;-64
2022/08/21 07:55:26;;;;;;;;;;;22.00;99.90;;;;;;4195179;28;20310;-64
2022/08/21 07:57:27;;;;;;;;;;;22.00;99.90;;;;;;4194113;28;19943;-63
2022/08/21 07:59:28;;;;;;;;;;;22.10;99.90;;;;;;4194866;28;20397;-63
2022/08/21 08:01:29;;;;;;;;;;;22.10;99.90;;;;;;4195678;28;19950;-63
2022/08/21 08:03:30;;;;;;;;;;;22.10;99.90;;;;;;4194655;28;19958;-63
2022/08/21 08:05:32;;;;;;;;;;;22.10;99.90;;;;;;4195432;28;19935;-63
2022/08/21 08:07:34;;;;;;;;;;;22.00;99.90;;;;;;4194696;28;19950;-63
2022/08/21 08:09:35;;;;;;;;;;;21.90;99.90;;;;;;4195157;28;20372;-63
2022/08/21 08:11:38;;;;;;;;;;;21.90;99.90;;;;;;4194436;28;19909;-63
2022/08/21 08:13:40;;;;;;;;;;;21.90;99.90;;;;;;4194915;28;19916;-61
2022/08/21 08:15:41;;;;;;;;;;;21.90;99.90;;;;;;4194374;28;19959;-64
2022/08/21 08:17:42;;;;;;;;;;;22.00;99.90;;;;;;4195464;28;19908;-63
2022/08/21 08:19:43;;;;;;;;;;;22.10;99.90;;;;;;4194521;28;20314;-63
2022/08/21 08:21:44;;;;;;;;;;;22.10;99.90;;;;;;4194972;28;19908;-64
2022/08/21 08:23:45;;;;;;;;;;;22.00;99.90;;;;;;4194438;28;19924;-63
2022/08/21 08:25:46;;;;;;;;;;;21.90;99.90;;;;;;4194137;28;19966;-63
2022/08/21 08:27:47;;;;;;;;;;;21.80;99.90;;;;;;4194369;28;19904;-63
2022/08/21 08:29:48;;;;;;;;;;;21.90;99.90;;;;;;4193895;28;19915;-63
2022/08/21 08:31:49;;;;;;;;;;;21.90;99.90;;;;;;4194676;28;19908;-62
2022/08/21 08:33:50;;;;;;;;;;;21.90;99.90;;;;;;4193708;28;20086;-62
2022/08/21 08:35:51;;;;;;;;;;;21.90;99.90;;;;;;4195314;28;19908;-62
2022/08/21 08:37:52;;;;;;;;;;;21.90;99.90;;;;;;4193955;28;20314;-64
2022/08/21 08:39:53;;;;;;;;;;;21.90;99.90;;;;;;4195334;28;20023;-62
2022/08/21 08:41:59;;;;;;;;;;;22.00;99.90;;;;;;4193793;28;19905;-63
2022/08/21 08:44:03;;;;;;;;;;;22.20;99.90;;;;;;4194991;28;19924;-64
2022/08/21 08:46:05;;;;;;;;;;;22.40;99.90;;;;;;4193966;28;19912;-64
2022/08/21 08:48:09;;;;;;;;;;;22.50;99.90;;;;;;4194762;28;19912;-64
2022/08/21 08:50:17;;;;;;;;;;;22.60;99.90;;;;;;4193346;28;19962;-62
2022/08/21 08:52:30;;;;;;;;;;;22.80;99.90;;;;;;4195001;28;19962;-63
2022/08/21 08:54:33;;;;;;;;;;;22.90;99.90;;;;;;4193921;28;20053;-63
2022/08/21 08:56:37;;;;;;;;;;;23.10;99.90;;;;;;4194549;28;19962;-62
2022/08/21 08:58:40;;;;;;;;;;;23.20;99.90;;;;;;4193909;28;19916;-63
2022/08/21 09:00:41;;;;;;;;;;;23.50;99.90;;;;;;4194283;28;20379;-62
2022/08/21 09:02:43;;;;;;;;;;;23.80;99.90;;;;;;4193754;28;20410;-62
2022/08/21 09:04:47;;;;;;;;;;;24.10;99.90;;;;;;4194276;28;20425;-63
2022/08/21 09:06:50;;;;;;;;;;;24.30;99.90;;;;;;4193555;28;19908;-63
2022/08/21 09:09:02;;;;;;;;;;;24.50;99.90;;;;;;4193904;28;19958;-63
2022/08/21 09:11:04;;;;;;;;;;;24.60;99.90;;;;;;4194138;28;19908;-63
2022/08/21 09:13:18;;;;;;;;;;;24.70;99.90;;;;;;4193869;28;19909;-62
2022/08/21 09:15:22;;;;;;;;;;;24.90;99.90;;;;;;4194133;28;19962;-64
2022/08/21 09:17:31;;;;;;;;;;;25.10;99.90;;;;;;4193730;28;19908;-63
2022/08/21 09:19:41;;;;;;;;;;;25.00;99.90;;;;;;4194180;28;19939;-62
2022/08/21 09:21:42;;;;;;;;;;;25.20;99.90;;;;;;4193735;28;19916;-62
2022/08/21 09:23:52;;;;;;;;;;;25.40;99.90;;;;;;4194311;28;19962;-63
2022/08/21 09:26:13;;;;;;;;;;;25.40;99.90;;;;;;4193500;28;19920;-62
2022/08/21 09:28:14;;;;;;;;;;;25.10;99.90;;;;;;4194243;28;19950;-64
2022/08/21 09:30:15;;;;;;;;;;;24.90;99.90;;;;;;4193412;28;20010;-63
2022/08/21 09:32:18;;;;;;;;;;;24.60;99.90;;;;;;4194447;28;19933;-65
2022/08/21 09:34:30;;;;;;;;;;;24.70;99.90;;;;;;4193327;28;19912;-62
2022/08/21 09:36:37;;;;;;;;;;;24.80;99.90;;;;;;4194782;28;19912;-63
2022/08/21 09:38:38;;;;;;;;;;;24.80;99.90;;;;;;4195783;28;19912;-63
2022/08/21 09:40:43;;;;;;;;;;;24.70;99.90;;;;;;4198045;28;19908;-64
2022/08/21 09:42:53;;;;;;;;;;;24.80;99.90;;;;;;4196757;28;19908;-63
2022/08/21 09:45:09;;;;;;;;;;;25.20;99.90;;;;;;4197854;28;19916;-64
2022/08/21 09:47:12;;;;;;;;;;;25.50;99.90;;;;;;4196313;28;19962;-63
2022/08/21 09:49:26;;;;;;;;;;;25.70;99.90;;;;;;4197253;28;19953;-62
2022/08/21 09:51:29;;;;;;;;;;;26.00;99.90;;;;;;4196629;28;19908;-63
2022/08/21 09:53:30;;;;;;;;;;;26.20;99.90;;;;;;4197638;28;19950;-63
2022/08/21 09:57:53;;;;;;;;;;;26.00;99.90;;;;;;4197904;28;19974;-62
2022/08/21 09:59:54;;;;;;;;;;;26.20;99.90;;;;;;4195811;28;19905;-62
2022/08/21 10:01:55;;;;;;;;;;;26.20;99.90;;;;;;4197420;28;19974;-63
2022/08/21 10:04:09;;;;;;;;;;;26.30;99.90;;;;;;4195955;28;19931;-63
2022/08/21 10:06:10;;;;;;;;;;;26.20;99.90;;;;;;4197273;28;19920;-63
2022/08/21 10:08:18;;;;;;;;;;;26.40;99.90;;;;;;4195352;28;19909;-62
2022/08/21 10:10:19;;;;;;;;;;;26.20;99.90;;;;;;4196018;28;19904;-63
2022/08/21 10:12:28;;;;;;;;;;;26.10;99.90;;;;;;4196320;28;19908;-63
2022/08/21 10:14:47;;;;;;;;;;;26.10;99.90;;;;;;4197337;28;19908;-63
2022/08/21 10:16:51;;;;;;;;;;;26.30;99.90;;;;;;4196395;28;19905;-64
2022/08/21 10:19:07;;;;;;;;;;;26.40;99.90;;;;;;4197454;28;19904;-63
2022/08/21 10:21:17;;;;;;;;;;;26.50;99.90;;;;;;4196081;28;19958;-64
2022/08/21 10:23:27;;;;;;;;;;;26.70;99.90;;;;;;4197414;28;19905;-64
2022/08/21 10:25:46;;;;;;;;;;;26.80;99.90;;;;;;4196083;28;20356;-64
2022/08/21 10:28:02;;;;;;;;;;;26.90;99.90;;;;;;4197331;28;20314;-63
2022/08/21 10:30:03;;;;;;;;;;;26.50;99.90;;;;;;4196210;28;19938;-63
2022/08/21 10:32:13;;;;;;;;;;;26.20;99.90;;;;;;4197303;28;19908;-64
2022/08/21 10:34:26;;;;;;;;;;;26.00;99.90;;;;;;4195970;28;20364;-63
2022/08/21 10:36:27;;;;;;;;;;;25.80;99.90;;;;;;4196925;28;19908;-63
2022/08/21 10:38:38;;;;;;;;;;;25.50;99.90;;;;;;4195893;28;19909;-64
2022/08/21 10:40:39;;;;;;;;;;;25.50;99.90;;;;;;4196894;28;19904;-64
2022/08/21 10:42:40;;;;;;;;;;;25.30;99.90;;;;;;4195835;28;19908;-63
2022/08/21 10:44:48;;;;;;;;;;;25.30;99.90;;;;;;4196932;28;19913;-64
2022/08/21 10:46:49;;;;;;;;;;;25.10;99.90;;;;;;4195727;28;20340;-64
2022/08/21 10:48:54;;;;;;;;;;;25.00;99.90;;;;;;4196185;28;19936;-64
2022/08/21 10:51:16;;;;;;;;;;;25.00;99.90;;;;;;4195825;28;19962;-65
2022/08/21 10:53:32;;;;;;;;;;;25.00;99.90;;;;;;4196340;28;19904;-64
2022/08/21 10:55:36;;;;;;;;;;;25.10;99.90;;;;;;4195791;28;19961;-64
2022/08/21 10:57:37;;;;;;;;;;;25.10;99.90;;;;;;4196513;28;19908;-64
2022/08/21 10:59:49;;;;;;;;;;;25.20;99.90;;;;;;4195840;28;19923;-63
2022/08/21 11:02:06;;;;;;;;;;;25.30;99.90;;;;;;4196485;28;19916;-63
2022/08/21 11:04:28;;;;;;;;;;;25.30;99.90;;;;;;4195353;28;20260;-64
2022/08/21 11:06:31;;;;;;;;;;;25.30;99.90;;;;;;4196653;28;19954;-62
2022/08/21 11:08:38;;;;;;;;;;;25.20;99.90;;;;;;4195190;28;19908;-62
2022/08/21 11:11:02;;;;;;;;;;;25.40;99.90;;;;;;4196596;28;19913;-62
2022/08/21 11:13:22;;;;;;;;;;;25.70;99.90;;;;;;4186925;28;19908;-62
2022/08/21 11:15:34;;;;;;;;;;;25.90;99.90;;;;;;4196572;28;20336;-63
2022/08/21 11:17:47;;;;;;;;;;;25.90;99.90;;;;;;4195459;28;19904;-63
2022/08/21 11:19:51;;;;;;;;;;;25.90;99.90;;;;;;4196072;28;19908;-63
2022/08/21 11:22:08;;;;;;;;;;;26.00;99.90;;;;;;4195452;28;19954;-63
2022/08/21 11:24:27;;;;;;;;;;;26.20;99.90;;;;;;4196501;28;19912;-64
2022/08/21 11:26:34;;;;;;;;;;;26.30;99.90;;;;;;4193962;28;19908;-64
2022/08/21 11:28:40;;;;;;;;;;;26.40;99.90;;;;;;4196480;28;19904;-63
2022/08/21 11:30:44;;;;;;;;;;;26.60;99.90;;;;;;4195112;28;19908;-63
2022/08/21 11:32:48;;;;;;;;;;;26.60;99.90;;;;;;4196329;28;19920;-63
2022/08/21 11:35:07;;;;;;;;;;;26.40;99.90;;;;;;4195449;28;19958;-63
2022/08/21 11:37:08;;;;;;;;;;;26.20;99.90;;;;;;4196346;28;19905;-63
2022/08/21 11:39:35;;;;;;;;;;;26.10;99.90;;;;;;4195138;28;19975;-63
2022/08/21 11:41:43;;;;;;;;;;;26.10;99.90;;;;;;4193214;28;19913;-63
2022/08/21 11:43:46;;;;;;;;;;;26.10;99.90;;;;;;4194954;28;19904;-63
2022/08/21 11:45:51;;;;;;;;;;;26.00;99.90;;;;;;4195236;28;19912;-63
2022/08/21 11:48:07;;;;;;;;;;;25.90;99.90;;;;;;4194660;28;19904;-63
2022/08/21 11:50:13;;;;;;;;;;;26.00;99.90;;;;;;4194284;28;19904;-63
2022/08/21 11:52:20;;;;;;;;;;;26.20;99.90;;;;;;4194690;28;19908;-63
2022/08/21 11:54:24;;;;;;;;;;;26.20;99.90;;;;;;4195624;28;19985;-62
2022/08/21 11:56:28;;;;;;;;;;;26.10;99.90;;;;;;4194616;28;19912;-64
2022/08/21 11:58:37;;;;;;;;;;;26.20;99.90;;;;;;4195660;28;19938;-64